Time;durP1;ratioP1;P1;durP2;ratioP2;P2;SDS_P1;SDS_P2;PMS_P1;PMS_P2;Temp;Humidity;BMP_temperature;BMP_pressure;BME280_temperature;BME280_humidity;BME280_pressure;Samples;Min_cycle;Max_cycle;Signal;HPM_P1;HPM_P2
2021/03/29 00:01:42;;;;;;;4.60;3.07;;;7.80;99.90;;;;;;5051485;28;20456;-47
2021/03/29 00:04:09;;;;;;;3.27;2.47;;;7.80;99.90;;;;;;5043392;28;20455;-48
2021/03/29 00:06:36;;;;;;;4.83;2.40;;;7.90;99.90;;;;;;5037111;28;20494;-48
2021/03/29 00:09:05;;;;;;;2.63;2.40;;;8.00;99.90;;;;;;5036157;28;20479;-47
2021/03/29 00:11:34;;;;;;;4.00;2.50;;;8.10;99.90;;;;;;5031406;28;20507;-47
2021/03/29 00:14:02;;;;;;;5.67;2.33;;;8.00;99.90;;;;;;5031330;28;20484;-48
2021/03/29 00:16:32;;;;;;;3.30;2.40;;;8.10;99.90;;;;;;5036180;28;20839;-48
2021/03/29 00:18:59;;;;;;;5.97;2.80;;;8.00;99.90;;;;;;5064107;22;20487;-46
2021/03/29 00:21:26;;;;;;;3.37;3.07;;;8.10;99.90;;;;;;5051015;28;20943;-46
2021/03/29 00:23:53;;;;;;;4.40;3.73;;;8.10;99.80;;;;;;5051065;28;20447;-46
2021/03/29 00:26:20;;;;;;;3.30;2.17;;;8.40;99.10;;;;;;5050716;28;20462;-46
2021/03/29 00:28:47;;;;;;;2.77;1.93;;;8.30;98.70;;;;;;5050541;28;20459;-46
2021/03/29 00:31:14;;;;;;;2.70;2.23;;;8.40;98.60;;;;;;5050887;28;20936;-46
2021/03/29 00:33:43;;;;;;;2.70;2.30;;;8.40;98.80;;;;;;5013390;28;20455;-46
2021/03/29 00:36:11;;;;;;;4.40;2.40;;;8.50;98.70;;;;;;5026215;28;20476;-46
2021/03/29 00:38:39;;;;;;;2.63;2.33;;;8.50;98.50;;;;;;5046593;28;20477;-45
2021/03/29 00:41:09;;;;;;;4.13;2.57;;;8.40;98.50;;;;;;5031108;28;20452;-46
2021/03/29 00:43:39;;;;;;;6.07;2.80;;;8.20;98.80;;;;;;5031052;28;20480;-46
2021/03/29 00:46:08;;;;;;;3.67;2.30;;;8.30;98.60;;;;;;5037560;28;20448;-46
2021/03/29 00:48:35;;;;;;;2.70;2.20;;;8.30;98.40;;;;;;5050951;28;20479;-46
2021/03/29 00:51:08;;;;;;;2.50;2.30;;;8.30;98.70;;;;;;5050694;28;20941;-45
2021/03/29 00:53:36;;;;;;;3.07;2.30;;;8.40;98.20;;;;;;5039661;28;20504;-46
2021/03/29 00:56:04;;;;;;;2.80;2.30;;;8.40;98.60;;;;;;5033854;28;20481;-46
2021/03/29 00:58:32;;;;;;;4.33;2.53;;;8.40;98.50;;;;;;5017838;28;20441;-46
2021/03/29 01:01:01;;;;;;;4.10;2.50;;;8.40;97.80;;;;;;5012094;28;20457;-46
2021/03/29 01:03:31;;;;;;;3.80;2.20;;;8.50;97.70;;;;;;5010960;28;20453;-46
2021/03/29 01:06:00;;;;;;;2.77;2.00;;;8.70;97.60;;;;;;5015945;28;20812;-46
2021/03/29 01:08:28;;;;;;;3.67;2.30;;;8.60;97.60;;;;;;5030397;28;20838;-46
2021/03/29 01:10:55;;;;;;;5.13;2.40;;;8.70;97.60;;;;;;5050080;28;20510;-46
2021/03/29 01:13:23;;;;;;;2.40;1.80;;;8.60;97.80;;;;;;5050614;28;20810;-46
2021/03/29 01:15:51;;;;;;;2.60;2.27;;;8.60;97.70;;;;;;5050331;28;20481;-46
2021/03/29 01:18:19;;;;;;;3.43;2.30;;;8.50;98.00;;;;;;5050438;28;20537;-46
2021/03/29 01:21:01;;;;;;;3.17;2.50;;;8.50;98.10;;;;;;5027731;28;20945;-46
2021/03/29 01:23:29;;;;;;;2.97;2.03;;;8.30;97.70;;;;;;5037094;28;20449;-46
2021/03/29 01:26:03;;;;;;;2.50;2.20;;;8.30;98.20;;;;;;5022309;28;20451;-46
2021/03/29 01:28:31;;;;;;;2.77;2.30;;;8.30;98.30;;;;;;5010690;28;20469;-46
2021/03/29 01:30:59;;;;;;;3.97;2.27;;;8.20;98.30;;;;;;5049682;28;20457;-46
2021/03/29 01:33:26;;;;;;;7.23;2.10;;;8.20;97.80;;;;;;5031044;28;20860;-46
2021/03/29 01:35:58;;;;;;;4.73;2.40;;;8.10;98.10;;;;;;5009418;28;20484;-46
2021/03/29 01:38:27;;;;;;;2.70;2.10;;;8.20;98.00;;;;;;5010235;28;20463;-46
2021/03/29 01:40:54;;;;;;;3.70;2.10;;;8.20;97.60;;;;;;5047932;28;20452;-46
2021/03/29 01:43:21;;;;;;;4.00;2.10;;;8.10;97.80;;;;;;5050081;28;20444;-46
2021/03/29 01:45:49;;;;;;;4.27;2.40;;;8.20;97.70;;;;;;5044647;28;20449;-46
2021/03/29 01:48:16;;;;;;;2.20;2.00;;;8.10;97.70;;;;;;5023871;28;20454;-46
2021/03/29 01:50:45;;;;;;;3.20;2.90;;;7.90;98.00;;;;;;5030687;28;20455;-45
2021/03/29 01:53:13;;;;;;;2.40;2.00;;;7.90;98.20;;;;;;5046111;28;20457;-46
2021/03/29 01:55:41;;;;;;;3.03;2.20;;;7.90;98.10;;;;;;5013867;28;20484;-46
2021/03/29 01:58:09;;;;;;;3.73;2.00;;;7.80;97.80;;;;;;5022075;28;20444;-46
2021/03/29 02:07:22;;;;;;;2.30;2.10;;;7.60;98.20;;;;;;5018233;28;20423;-46
2021/03/29 02:09:49;;;;;;;3.20;2.43;;;7.60;98.20;;;;;;5042720;28;20472;-46
2021/03/29 02:12:16;;;;;;;5.70;2.40;;;7.70;97.70;;;;;;5019986;28;20449;-46
2021/03/29 02:14:46;;;;;;;2.47;2.27;;;7.50;97.90;;;;;;5013623;28;20480;-46
2021/03/29 02:17:13;;;;;;;2.53;2.20;;;7.40;98.10;;;;;;5016424;28;20457;-46
2021/03/29 02:19:40;;;;;;;2.67;2.10;;;7.40;98.20;;;;;;5040589;28;20536;-45
2021/03/29 02:22:07;;;;;;;3.33;2.27;;;7.40;98.00;;;;;;5021042;28;20484;-46
2021/03/29 02:24:35;;;;;;;4.47;2.77;;;7.40;98.30;;;;;;5013613;28;20457;-46
2021/03/29 02:27:02;;;;;;;4.20;2.10;;;7.40;98.10;;;;;;5014862;28;20463;-46
2021/03/29 02:29:29;;;;;;;3.20;2.03;;;7.20;98.00;;;;;;5039306;28;20480;-46
2021/03/29 02:31:56;;;;;;;2.90;1.87;;;7.30;98.00;;;;;;5051427;28;20847;-46
2021/03/29 02:34:24;;;;;;;3.63;2.10;;;7.30;98.10;;;;;;5027953;28;20462;-46
2021/03/29 02:36:51;;;;;;;2.43;2.00;;;7.40;97.70;;;;;;5013127;28;20825;-46
2021/03/29 02:39:18;;;;;;;2.60;2.10;;;7.50;97.40;;;;;;5021503;28;20467;-46
2021/03/29 02:41:47;;;;;;;2.73;2.33;;;7.60;97.60;;;;;;5052965;28;20447;-45
2021/03/29 02:44:15;;;;;;;2.37;1.97;;;7.50;97.30;;;;;;5013153;28;20457;-46
2021/03/29 02:46:42;;;;;;;2.50;2.30;;;7.30;97.40;;;;;;5020146;28;20441;-46
2021/03/29 02:49:10;;;;;;;2.13;1.90;;;7.20;97.80;;;;;;5034550;28;20503;-46
2021/03/29 02:51:40;;;;;;;4.43;2.20;;;7.10;97.70;;;;;;5019233;28;20506;-46
2021/03/29 02:54:09;;;;;;;2.37;2.20;;;7.20;98.00;;;;;;5013070;28;20652;-46
2021/03/29 02:56:38;;;;;;;3.43;2.63;;;7.10;98.10;;;;;;5023040;28;20484;-46
2021/03/29 02:59:12;;;;;;;3.57;2.67;;;7.10;98.40;;;;;;5017359;28;20475;-46
2021/03/29 03:01:40;;;;;;;5.30;2.90;;;7.00;98.30;;;;;;5044938;28;20528;-46
2021/03/29 03:04:10;;;;;;;7.13;2.60;;;6.80;98.70;;;;;;5052617;28;20452;-46
2021/03/29 03:06:39;;;;;;;5.67;2.50;;;6.60;98.50;;;;;;5032161;28;20457;-46
2021/03/29 03:09:07;;;;;;;3.27;2.33;;;6.60;98.70;;;;;;5023224;28;20471;-46
2021/03/29 03:11:34;;;;;;;2.77;2.13;;;6.70;98.60;;;;;;5012490;28;20457;-46
2021/03/29 03:14:03;;;;;;;4.30;2.90;;;6.60;98.60;;;;;;5012632;28;20454;-46
2021/03/29 03:16:32;;;;;;;2.93;2.40;;;6.60;99.20;;;;;;5012149;28;20544;-46
2021/03/29 03:18:59;;;;;;;2.23;2.03;;;6.50;99.10;;;;;;5019175;28;20475;-46
2021/03/29 03:28:11;;;;;;;6.30;2.57;;;6.50;99.10;;;;;;5021632;28;20799;-46
2021/03/29 03:30:40;;;;;;;3.13;2.80;;;6.70;99.20;;;;;;5015401;28;20873;-45
2021/03/29 03:33:10;;;;;;;2.13;1.93;;;6.70;98.60;;;;;;5031845;28;20452;-46
2021/03/29 03:35:37;;;;;;;3.90;2.33;;;6.70;98.40;;;;;;5031769;28;20546;-46
2021/03/29 03:38:09;;;;;;;3.17;2.30;;;6.80;98.20;;;;;;5022888;28;20836;-46
2021/03/29 03:40:37;;;;;;;3.17;2.50;;;6.90;98.10;;;;;;5041413;28;20479;-46
2021/03/29 03:43:06;;;;;;;3.50;3.00;;;7.00;98.30;;;;;;5012270;28;20504;-46
2021/03/29 03:45:35;;;;;;;4.40;3.63;;;7.10;97.80;;;;;;5012040;28;20488;-46
2021/03/29 03:48:02;;;;;;;6.33;3.10;;;7.00;98.10;;;;;;5019803;28;20946;-46
2021/03/29 03:50:31;;;;;;;3.40;2.40;;;7.20;97.30;;;;;;5046858;28;20475;-46
2021/03/29 03:52:59;;;;;;;2.50;1.97;;;7.20;96.70;;;;;;5033875;28;20454;-45
2021/03/29 03:55:26;;;;;;;2.20;1.90;;;7.30;96.60;;;;;;5027341;28;20484;-46
2021/03/29 03:57:52;;;;;;;2.83;2.00;;;7.40;96.60;;;;;;5018203;28;20445;-45
2021/03/29 04:00:21;;;;;;;3.57;2.47;;;7.50;96.30;;;;;;5042667;28;20472;-46
2021/03/29 04:02:49;;;;;;;3.27;2.40;;;7.30;96.10;;;;;;5027683;28;20448;-46
2021/03/29 04:05:17;;;;;;;2.70;2.40;;;7.10;97.20;;;;;;5037818;28;20807;-46
2021/03/29 04:07:47;;;;;;;4.40;2.73;;;6.90;97.60;;;;;;5034570;28;20455;-46
2021/03/29 04:10:17;;;;;;;3.00;2.43;;;6.50;98.00;;;;;;5050121;28;20995;-45
2021/03/29 04:12:44;;;;;;;4.43;2.17;;;6.50;98.20;;;;;;5049800;28;20443;-46
2021/03/29 04:15:12;;;;;;;5.77;2.40;;;6.50;97.50;;;;;;5043513;28;20484;-46
2021/03/29 04:17:39;;;;;;;5.60;2.47;;;6.50;97.60;;;;;;5031289;28;20444;-46
2021/03/29 04:20:07;;;;;;;2.60;2.03;;;6.50;97.90;;;;;;5030437;28;20499;-45
2021/03/29 04:22:33;;;;;;;2.40;2.20;;;6.50;97.70;;;;;;5030030;28;20448;-46
2021/03/29 04:25:01;;;;;;;2.43;2.00;;;6.60;97.60;;;;;;5031382;28;20708;-46
2021/03/29 04:27:28;;;;;;;4.20;2.10;;;6.80;97.40;;;;;;5033182;28;20826;-46
2021/03/29 04:29:54;;;;;;;4.43;2.33;;;6.80;97.10;;;;;;5031143;28;20538;-46
2021/03/29 04:32:21;;;;;;;2.43;2.20;;;6.80;97.30;;;;;;5045902;28;20446;-46
2021/03/29 04:34:47;;;;;;;3.60;2.80;;;6.90;97.20;;;;;;5047560;28;20453;-46
2021/03/29 04:37:14;;;;;;;3.70;2.67;;;6.80;97.30;;;;;;5031210;28;20444;-45
2021/03/29 04:39:40;;;;;;;3.33;2.27;;;6.80;97.40;;;;;;5033764;28;21233;-45
2021/03/29 04:42:08;;;;;;;3.30;2.80;;;6.70;97.60;;;;;;5030866;28;20445;-46
2021/03/29 04:44:38;;;;;;;4.07;2.40;;;6.70;97.30;;;;;;5042676;28;20527;-46
2021/03/29 04:47:04;;;;;;;3.00;2.20;;;6.50;97.70;;;;;;5030708;28;20448;-45
2021/03/29 04:49:34;;;;;;;3.63;2.37;;;6.30;98.00;;;;;;5030561;28;21016;-45
2021/03/29 04:52:01;;;;;;;2.50;2.30;;;6.40;98.20;;;;;;5030652;28;20464;-45
2021/03/29 04:54:28;;;;;;;4.17;2.67;;;6.50;98.20;;;;;;5026432;28;20459;-46
2021/03/29 04:56:54;;;;;;;4.10;2.70;;;6.60;98.10;;;;;;5038558;28;20485;-46
2021/03/29 04:59:22;;;;;;;5.37;2.30;;;6.30;98.00;;;;;;5026168;28;20465;-45
2021/03/29 05:01:48;;;;;;;5.17;2.40;;;6.20;97.90;;;;;;5040633;28;20967;-46
2021/03/29 05:04:15;;;;;;;6.23;2.70;;;6.30;97.90;;;;;;5044190;28;20454;-45
2021/03/29 05:06:43;;;;;;;4.50;2.50;;;6.40;97.90;;;;;;5036800;28;20443;-45
2021/03/29 05:09:09;;;;;;;4.93;2.70;;;6.40;97.80;;;;;;5042984;28;20468;-46
2021/03/29 05:11:47;;;;;;;3.50;2.60;;;6.40;97.60;;;;;;5049375;28;21674;-46
2021/03/29 05:14:14;;;;;;;2.27;2.07;;;6.40;97.60;;;;;;5028877;28;20461;-45
2021/03/29 05:16:42;;;;;;;2.27;2.07;;;6.60;97.70;;;;;;5027886;28;20484;-46
2021/03/29 05:19:08;;;;;;;2.60;2.40;;;6.70;97.30;;;;;;5027971;28;20569;-46
2021/03/29 05:21:35;;;;;;;8.00;2.27;;;6.80;97.20;;;;;;5029928;28;20476;-46
2021/03/29 05:24:03;;;;;;;3.57;2.13;;;6.70;96.90;;;;;;5036490;28;20829;-46
2021/03/29 05:26:29;;;;;;;5.60;2.90;;;6.60;96.90;;;;;;5039512;28;20443;-46
2021/03/29 05:28:56;;;;;;;3.83;3.17;;;6.60;97.00;;;;;;5037992;28;20480;-46
2021/03/29 05:31:23;;;;;;;2.90;2.60;;;6.60;97.00;;;;;;5026443;28;20465;-46
2021/03/29 05:33:50;;;;;;;6.67;2.70;;;6.60;97.60;;;;;;5034179;28;20494;-45
2021/03/29 05:36:17;;;;;;;4.83;2.00;;;6.70;97.00;;;;;;5047224;28;20475;-46
2021/03/29 05:38:45;;;;;;;3.50;2.10;;;6.80;96.80;;;;;;5032941;28;20467;-46
2021/03/29 05:41:13;;;;;;;3.13;2.10;;;6.80;96.80;;;;;;5034287;28;20984;-46
2021/03/29 05:43:41;;;;;;;4.23;2.30;;;6.90;96.70;;;;;;5052632;28;20984;-46
2021/03/29 05:46:09;;;;;;;5.17;2.83;;;6.90;96.70;;;;;;5052740;28;20531;-45
2021/03/29 05:48:37;;;;;;;5.83;3.40;;;7.00;97.40;;;;;;5051249;28;20870;-46
2021/03/29 05:51:07;;;;;;;11.43;3.70;;;7.10;97.40;;;;;;5034038;28;20540;-46
2021/03/29 05:53:34;;;;;;;6.40;3.63;;;7.10;97.60;;;;;;5029722;28;20542;-46
2021/03/29 05:56:01;;;;;;;11.80;3.40;;;7.10;97.70;;;;;;5030283;28;20556;-46
2021/03/29 05:58:41;;;;;;;16.63;4.10;;;7.20;97.80;;;;;;5031650;28;21030;-46
2021/03/29 06:01:08;;;;;;;6.97;2.80;;;7.20;97.50;;;;;;5026517;28;20946;-46
2021/03/29 06:03:36;;;;;;;3.53;2.23;;;7.50;97.10;;;;;;5022276;28;20472;-47
2021/03/29 06:06:24;;;;;;;4.43;2.67;;;8.10;96.60;;;;;;5028586;28;20467;-46
2021/03/29 06:08:54;;;;;;;3.97;2.77;;;8.80;95.20;;;;;;5024280;28;20896;-46
2021/03/29 06:11:25;;;;;;;5.30;2.90;;;9.70;94.40;;;;;;5032200;28;20456;-47
2021/03/29 06:14:12;;;;;;;4.03;2.70;;;10.70;93.20;;;;;;5031575;28;20452;-47
2021/03/29 06:17:01;;;;;;;5.70;2.63;;;11.50;91.80;;;;;;5029700;28;20502;-46
2021/03/29 06:19:40;;;;;;;3.80;2.53;;;11.90;90.90;;;;;;5030583;28;20522;-46
2021/03/29 06:22:12;;;;;;;6.00;2.77;;;12.20;90.40;;;;;;5026683;28;20456;-46
2021/03/29 06:25:02;;;;;;;3.30;2.47;;;12.70;90.30;;;;;;5030409;28;20946;-47
2021/03/29 06:27:31;;;;;;;3.83;2.50;;;13.40;89.10;;;;;;5044021;28;20864;-46
2021/03/29 06:30:19;;;;;;;9.60;2.90;;;13.40;88.60;;;;;;5030050;28;20470;-46
2021/03/29 06:33:07;;;;;;;6.20;3.00;;;13.30;85.70;;;;;;5028128;28;20452;-46
2021/03/29 06:35:38;;;;;;;2.53;2.33;;;13.20;86.60;;;;;;5025664;28;20496;-47
2021/03/29 06:38:09;;;;;;;3.40;2.90;;;13.20;87.00;;;;;;5028612;28;20459;-46
2021/03/29 06:40:40;;;;;;;5.10;2.80;;;13.60;87.00;;;;;;5032529;28;20467;-46
2021/03/29 06:43:24;;;;;;;6.87;2.77;;;14.10;84.60;;;;;;5037456;28;20506;-47
2021/03/29 06:45:51;;;;;;;4.97;2.50;;;14.40;81.60;;;;;;5034572;28;20445;-47
2021/03/29 06:48:23;;;;;;;4.33;2.70;;;14.40;82.40;;;;;;5028663;28;20828;-46
2021/03/29 06:51:18;;;;;;;2.63;2.47;;;14.30;80.40;;;;;;5058818;22;20596;-49
2021/03/29 06:53:45;;;;;;;4.80;2.20;;;14.60;84.00;;;;;;5001721;28;20562;-49
2021/03/29 06:56:24;;;;;;;4.80;2.20;;;14.80;80.50;;;;;;5035873;28;20479;-49
2021/03/29 06:58:52;;;;;;;4.70;2.50;;;15.10;79.30;;;;;;5052353;28;20444;-49
2021/03/29 07:01:21;;;;;;;4.03;2.30;;;15.00;77.80;;;;;;5063960;28;20499;-49
2021/03/29 07:03:49;;;;;;;4.00;2.60;;;15.20;78.60;;;;;;5047815;28;20466;-49
2021/03/29 07:06:17;;;;;;;4.10;2.90;;;15.70;81.40;;;;;;5049265;28;20975;-49
2021/03/29 07:08:45;;;;;;;5.05;2.60;;;16.10;81.50;;;;;;5057199;28;20838;-49
2021/03/29 07:11:14;;;;;;;4.10;2.93;;;16.50;79.30;;;;;;5051436;28;20716;-49
2021/03/29 07:13:42;;;;;;;4.17;2.40;;;16.60;80.10;;;;;;5065561;28;20530;-49
2021/03/29 07:16:10;;;;;;;2.97;2.23;;;17.10;77.00;;;;;;5070600;28;20486;-48
2021/03/29 07:18:37;;;;;;;10.10;3.10;;;17.70;75.40;;;;;;5051625;28;20474;-49
2021/03/29 07:21:05;;;;;;;10.43;3.30;;;18.30;75.50;;;;;;5048560;28;20467;-49
2021/03/29 07:23:32;;;;;;;6.07;2.97;;;18.40;74.90;;;;;;5049372;28;20964;-49
2021/03/29 07:26:00;;;;;;;5.30;3.77;;;18.90;74.10;;;;;;5056899;28;20454;-49
2021/03/29 07:28:30;;;;;;;9.13;3.50;;;19.50;71.50;;;;;;5058762;28;20459;-49
2021/03/29 07:31:00;;;;;;;3.70;2.70;;;19.90;68.80;;;;;;5063647;28;20458;-50
2021/03/29 07:33:51;;;;;;;4.23;3.10;;;20.00;67.90;;;;;;5060898;28;20451;-49
2021/03/29 07:36:43;;;;;;;5.27;3.07;;;20.30;66.60;;;;;;5050802;28;20570;-49
2021/03/29 07:39:10;;;;;;;5.57;3.43;;;19.90;67.40;;;;;;5055283;28;20450;-49
2021/03/29 07:41:37;;;;;;;4.17;3.20;;;20.20;65.90;;;;;;5053313;28;20474;-49
2021/03/29 07:44:18;;;;;;;8.30;3.07;;;19.20;70.20;;;;;;5069160;28;20576;-49
2021/03/29 07:46:48;;;;;;;3.47;2.77;;;19.40;74.30;;;;;;5051954;28;20447;-49
2021/03/29 07:49:43;;;;;;;4.00;2.80;;;19.40;66.60;;;;;;5069139;28;20438;-48
2021/03/29 07:52:34;;;;;;;3.83;2.60;;;19.40;65.90;;;;;;5068878;28;21009;-49
2021/03/29 07:55:04;;;;;;;3.23;2.27;;;20.10;65.50;;;;;;5045947;28;20452;-49
2021/03/29 07:58:01;;;;;;;3.17;2.57;;;19.40;69.30;;;;;;5069301;28;20439;-49
2021/03/29 08:00:43;;;;;;;3.53;2.20;;;19.70;65.40;;;;;;5060464;28;20564;-49
2021/03/29 08:03:37;;;;;;;4.63;2.17;;;19.20;67.30;;;;;;5046883;28;20453;-49
2021/03/29 08:06:04;;;;;;;5.17;2.87;;;19.80;66.10;;;;;;5049908;28;20932;-49
2021/03/29 08:08:43;;;;;;;5.10;2.40;;;20.10;61.20;;;;;;5049477;28;20446;-49
2021/03/29 08:11:13;;;;;;;3.70;2.40;;;20.10;63.40;;;;;;5048849;28;20495;-49
2021/03/29 08:13:42;;;;;;;2.93;2.10;;;20.00;60.00;;;;;;5045741;28;20462;-49
2021/03/29 08:16:09;;;;;;;6.07;2.27;;;19.00;65.40;;;;;;5053915;28;20575;-49
2021/03/29 08:19:14;;;;;;;4.30;2.43;;;18.80;63.90;;;;;;5059177;28;20555;-49
2021/03/29 08:21:52;;;;;;;3.07;2.27;;;18.80;60.50;;;;;;5052577;28;20470;-49
2021/03/29 08:24:25;;;;;;;5.33;2.30;;;18.90;64.30;;;;;;5069517;28;20962;-49
2021/03/29 08:26:53;;;;;;;4.40;2.17;;;19.20;62.10;;;;;;5069572;28;20435;-49
2021/03/29 08:29:33;;;;;;;5.33;3.03;;;18.70;68.20;;;;;;5070859;28;20447;-49
2021/03/29 08:32:09;;;;;;;3.70;2.50;;;19.00;64.70;;;;;;5070657;28;20545;-50
2021/03/29 08:34:46;;;;;;;5.33;2.27;;;19.80;63.60;;;;;;5069992;28;20454;-49
2021/03/29 08:37:15;;;;;;;2.60;2.40;;;19.80;61.30;;;;;;5070962;28;20486;-49
2021/03/29 08:39:43;;;;;;;2.83;1.97;;;19.80;59.70;;;;;;5070639;28;20454;-49
2021/03/29 08:42:10;;;;;;;3.27;2.30;;;20.30;59.50;;;;;;5044310;28;20472;-50
2021/03/29 08:44:39;;;;;;;5.73;2.20;;;20.60;58.20;;;;;;5030699;28;20550;-49
2021/03/29 08:47:09;;;;;;;4.27;2.67;;;20.90;57.90;;;;;;5030873;28;20448;-49
2021/03/29 08:49:36;;;;;;;5.20;2.37;;;20.60;58.10;;;;;;5031190;28;20527;-49
2021/03/29 08:52:04;;;;;;;3.07;2.63;;;20.60;58.80;;;;;;5030455;28;20530;-49
2021/03/29 08:54:34;;;;;;;4.17;3.03;;;20.60;59.90;;;;;;5039505;28;20458;-49
2021/03/29 08:57:05;;;;;;;4.97;3.93;;;20.50;60.60;;;;;;5046113;28;20483;-49
2021/03/29 08:59:35;;;;;;;3.60;2.40;;;20.30;60.70;;;;;;5030194;28;20449;-49
2021/03/29 09:02:13;;;;;;;3.87;2.60;;;20.20;62.30;;;;;;5050542;28;20520;-49
2021/03/29 09:04:52;;;;;;;5.73;2.60;;;19.80;58.20;;;;;;5050461;28;20501;-49
2021/03/29 09:07:20;;;;;;;2.10;2.00;;;20.20;63.10;;;;;;5050292;28;20450;-49
2021/03/29 09:09:47;;;;;;;4.07;3.00;;;20.50;60.60;;;;;;5050066;28;20446;-49
2021/03/29 09:12:32;;;;;;;4.83;3.30;;;21.30;60.20;;;;;;5049737;28;20462;-49
2021/03/29 09:15:00;;;;;;;3.23;2.50;;;21.90;58.50;;;;;;5049968;28;20440;-49
2021/03/29 09:17:29;;;;;;;2.57;2.27;;;21.70;56.50;;;;;;5047218;28;20890;-49
2021/03/29 09:19:56;;;;;;;5.63;2.57;;;22.00;58.30;;;;;;5050090;28;20505;-49
2021/03/29 09:22:32;;;;;;;3.20;2.70;;;21.80;56.70;;;;;;5050134;28;20448;-49
2021/03/29 09:25:00;;;;;;;4.80;2.80;;;21.40;60.50;;;;;;5050070;28;20454;-49
2021/03/29 09:27:36;;;;;;;2.60;2.40;;;21.20;60.70;;;;;;5046224;28;20487;-49
2021/03/29 09:30:08;;;;;;;5.33;2.77;;;22.30;58.70;;;;;;5055150;28;20458;-49
2021/03/29 09:32:35;;;;;;;4.60;2.57;;;23.00;54.70;;;;;;5068403;28;20438;-49
2021/03/29 09:35:02;;;;;;;5.47;2.53;;;23.10;54.30;;;;;;5052117;28;20447;-49
2021/03/29 09:37:30;;;;;;;7.37;2.80;;;23.30;56.70;;;;;;5047867;28;20448;-49
2021/03/29 09:39:59;;;;;;;6.30;3.57;;;22.90;60.60;;;;;;5049607;28;20452;-49
2021/03/29 09:42:36;;;;;;;6.53;3.90;;;22.40;61.90;;;;;;5049626;28;21223;-49
2021/03/29 09:45:04;;;;;;;5.10;4.03;;;22.10;66.40;;;;;;5049225;28;20447;-49
2021/03/29 09:47:30;;;;;;;4.80;3.90;;;22.50;64.80;;;;;;5049325;28;20951;-49
2021/03/29 09:49:57;;;;;;;9.93;4.93;;;22.60;65.50;;;;;;5049083;28;20444;-48
2021/03/29 09:52:36;;;;;;;21.80;10.70;;;22.40;65.70;;;;;;5049284;28;20454;-49
2021/03/29 09:55:04;;;;;;;5.13;4.33;;;22.70;64.90;;;;;;5049154;28;20444;-49
2021/03/29 09:57:38;;;;;;;10.40;3.87;;;22.50;64.10;;;;;;5049132;28;20443;-49
2021/03/29 10:00:19;;;;;;;6.53;4.07;;;22.70;64.30;;;;;;5047960;28;20443;-48
2021/03/29 10:02:47;;;;;;;5.47;4.10;;;20.90;69.20;;;;;;5049426;28;20451;-48
2021/03/29 10:05:15;;;;;;;7.10;4.37;;;19.50;72.40;;;;;;5049142;28;20476;-48
2021/03/29 10:07:53;;;;;;;5.20;4.33;;;19.70;75.80;;;;;;5049277;28;20479;-48
2021/03/29 10:10:27;;;;;;;7.27;3.77;;;19.20;73.80;;;;;;5061435;28;20548;-49
2021/03/29 10:13:08;;;;;;;5.67;4.60;;;19.80;73.70;;;;;;5053029;28;20459;-48
2021/03/29 10:15:35;;;;;;;5.27;4.40;;;19.40;75.60;;;;;;5052027;28;20474;-48
2021/03/29 10:18:09;;;;;;;9.03;4.67;;;19.30;75.60;;;;;;5053468;28;20447;-48
2021/03/29 10:20:38;;;;;;;4.53;4.13;;;18.80;78.80;;;;;;5053132;28;20471;-48
2021/03/29 10:23:25;;;;;;;9.13;4.93;;;18.50;79.70;;;;;;5050862;28;20447;-48
2021/03/29 10:26:15;;;;;;;5.20;4.20;;;18.50;80.50;;;;;;5052764;28;20204;-48
2021/03/29 10:28:52;;;;;;;6.57;4.30;;;18.30;79.20;;;;;;5052632;28;20451;-48
2021/03/29 10:31:19;;;;;;;5.40;4.50;;;18.80;75.60;;;;;;5052314;28;20992;-48
2021/03/29 10:33:45;;;;;;;4.43;4.00;;;19.10;74.40;;;;;;5052623;28;20444;-48
2021/03/29 10:36:16;;;;;;;4.60;3.87;;;19.70;75.20;;;;;;5052425;28;20479;-48
2021/03/29 10:38:44;;;;;;;4.37;3.73;;;19.50;71.60;;;;;;5052032;28;21042;-48
2021/03/29 10:41:11;;;;;;;3.90;3.50;;;19.60;73.40;;;;;;5052384;28;20482;-48
2021/03/29 10:43:38;;;;;;;5.00;3.53;;;19.00;72.80;;;;;;5052743;28;20567;-48
2021/03/29 10:46:05;;;;;;;4.90;3.53;;;19.40;72.50;;;;;;5052338;28;20436;-48
2021/03/29 10:48:32;;;;;;;3.80;3.40;;;20.30;70.20;;;;;;5052558;28;20444;-49
2021/03/29 10:51:00;;;;;;;4.13;3.70;;;20.80;71.10;;;;;;5051501;28;20505;-48
2021/03/29 10:53:26;;;;;;;5.30;3.90;;;20.30;69.00;;;;;;5032514;28;20449;-48
2021/03/29 10:55:54;;;;;;;4.90;3.30;;;20.00;71.70;;;;;;5032106;28;20480;-48
2021/03/29 10:58:20;;;;;;;4.57;4.17;;;20.60;67.80;;;;;;5032710;28;20455;-49
2021/03/29 11:00:47;;;;;;;5.60;4.50;;;20.10;72.90;;;;;;5036712;28;20529;-48
2021/03/29 11:03:13;;;;;;;5.97;4.10;;;19.70;73.80;;;;;;5052130;28;20941;-48
2021/03/29 11:05:40;;;;;;;4.77;4.27;;;19.50;74.70;;;;;;5051846;28;21100;-48
2021/03/29 11:08:06;;;;;;;6.27;4.30;;;19.70;74.80;;;;;;5051676;28;20941;-48
2021/03/29 11:10:33;;;;;;;8.50;3.80;;;19.60;74.70;;;;;;5051568;28;20498;-48
2021/03/29 11:13:01;;;;;;;5.27;4.00;;;18.30;77.40;;;;;;5041007;28;20448;-48
2021/03/29 11:15:30;;;;;;;7.03;4.03;;;17.90;76.90;;;;;;5044152;28;20979;-48
2021/03/29 11:17:56;;;;;;;5.23;4.40;;;18.10;77.50;;;;;;5051913;28;20516;-48
2021/03/29 11:20:23;;;;;;;7.07;4.47;;;17.70;77.00;;;;;;5051479;28;20524;-48
2021/03/29 11:22:49;;;;;;;5.03;4.10;;;17.80;78.10;;;;;;5051212;28;20448;-48
2021/03/29 11:25:16;;;;;;;4.70;4.10;;;18.40;77.10;;;;;;5052141;28;20820;-48
2021/03/29 11:27:43;;;;;;;5.93;3.67;;;18.30;76.30;;;;;;5051681;28;20444;-48
2021/03/29 11:30:13;;;;;;;5.70;4.37;;;18.10;76.20;;;;;;5051819;28;20537;-48
2021/03/29 11:32:41;;;;;;;5.50;4.50;;;17.80;77.50;;;;;;5050995;28;20459;-48
2021/03/29 11:35:08;;;;;;;5.40;4.27;;;17.60;78.50;;;;;;5051848;28;20455;-48
2021/03/29 11:37:35;;;;;;;5.33;3.73;;;17.60;78.70;;;;;;5052007;28;20483;-48
2021/03/29 11:40:02;;;;;;;5.90;3.67;;;17.70;78.60;;;;;;5052020;28;20525;-48
2021/03/29 11:42:28;;;;;;;10.90;3.93;;;17.80;77.50;;;;;;5052014;28;20456;-48
2021/03/29 11:44:55;;;;;;;4.00;3.00;;;18.20;78.00;;;;;;5051737;28;20444;-48
2021/03/29 11:47:22;;;;;;;4.37;3.33;;;18.00;74.30;;;;;;5051776;28;20513;-48
2021/03/29 11:49:49;;;;;;;4.17;3.10;;;17.60;71.90;;;;;;5034674;28;20453;-48
2021/03/29 11:52:15;;;;;;;4.07;3.63;;;17.80;67.40;;;;;;5031753;28;20552;-48
2021/03/29 11:54:42;;;;;;;3.60;2.90;;;17.80;71.90;;;;;;5031637;28;20476;-48
2021/03/29 11:57:09;;;;;;;5.13;2.60;;;18.20;67.60;;;;;;5031411;28;20480;-48
2021/03/29 11:59:42;;;;;;;2.20;2.00;;;18.50;65.00;;;;;;5031517;28;20457;-48
2021/03/29 12:02:12;;;;;;;3.50;2.13;;;18.30;62.00;;;;;;5046761;28;20501;-48
2021/03/29 12:04:47;;;;;;;2.57;2.37;;;18.20;60.00;;;;;;5054799;28;20451;-48
2021/03/29 12:07:16;;;;;;;2.57;2.30;;;18.40;63.90;;;;;;5069278;28;20442;-48
2021/03/29 12:09:52;;;;;;;2.60;2.40;;;18.50;62.20;;;;;;5069256;28;20475;-48
2021/03/29 12:12:18;;;;;;;3.37;2.50;;;18.60;62.50;;;;;;5060230;28;20489;-49
2021/03/29 12:14:47;;;;;;;3.47;2.30;;;19.00;59.80;;;;;;5069188;28;20443;-48
2021/03/29 12:17:14;;;;;;;4.00;2.23;;;18.60;64.60;;;;;;5057774;28;20505;-48
2021/03/29 12:19:43;;;;;;;2.53;2.17;;;18.10;61.00;;;;;;5054166;28;20451;-48
2021/03/29 12:22:12;;;;;;;2.13;1.93;;;18.20;62.20;;;;;;5050338;28;20490;-48
2021/03/29 12:24:43;;;;;;;2.40;2.20;;;18.00;59.10;;;;;;5050206;28;20440;-48
2021/03/29 12:27:10;;;;;;;4.77;2.70;;;18.40;58.60;;;;;;5046652;28;20462;-49
2021/03/29 12:29:41;;;;;;;3.13;2.43;;;18.70;61.10;;;;;;5050431;28;20468;-48
2021/03/29 12:32:12;;;;;;;2.50;2.30;;;18.70;63.90;;;;;;5050192;28;20493;-49
2021/03/29 12:34:44;;;;;;;2.63;2.00;;;18.80;62.60;;;;;;5048474;28;20447;-48
2021/03/29 12:37:11;;;;;;;5.60;2.70;;;18.60;61.30;;;;;;5050266;28;20650;-48
2021/03/29 12:39:41;;;;;;;2.40;2.20;;;18.70;62.80;;;;;;5050237;28;20474;-48
2021/03/29 12:42:11;;;;;;;3.40;2.53;;;18.60;63.90;;;;;;5050462;28;20474;-48
2021/03/29 12:44:37;;;;;;;3.20;2.57;;;18.80;61.90;;;;;;5050104;28;20475;-48
2021/03/29 12:47:09;;;;;;;2.33;2.13;;;18.60;62.00;;;;;;5049839;28;20444;-48
2021/03/29 12:49:35;;;;;;;4.20;2.50;;;18.10;67.70;;;;;;5049995;28;20443;-48
2021/03/29 12:52:04;;;;;;;3.03;2.67;;;18.10;65.50;;;;;;5048528;28;20553;-48
2021/03/29 12:54:36;;;;;;;3.97;2.43;;;18.30;63.10;;;;;;5050257;28;20455;-48
2021/03/29 12:57:04;;;;;;;3.30;2.20;;;18.30;64.20;;;;;;5063863;28;20483;-47
2021/03/29 12:59:33;;;;;;;3.20;2.40;;;18.10;68.30;;;;;;5060699;28;20963;-48
2021/03/29 13:02:00;;;;;;;2.10;1.90;;;18.20;68.30;;;;;;5068430;28;20462;-48
2021/03/29 13:04:28;;;;;;;2.93;2.20;;;18.40;67.30;;;;;;5068669;28;20443;-48
2021/03/29 13:07:10;;;;;;;9.27;2.30;;;18.80;60.90;;;;;;5055130;28;20454;-48
2021/03/29 13:09:43;;;;;;;4.33;2.83;;;18.90;64.00;;;;;;5049715;28;20448;-48
2021/03/29 13:12:11;;;;;;;3.40;2.77;;;18.90;62.20;;;;;;5049693;28;20890;-48
2021/03/29 13:14:58;;;;;;;3.40;2.23;;;18.90;62.80;;;;;;5049568;28;20459;-48
2021/03/29 13:17:24;;;;;;;3.60;2.53;;;18.80;65.00;;;;;;5049467;28;20617;-48
2021/03/29 13:19:51;;;;;;;2.60;2.40;;;18.90;62.90;;;;;;5049802;28;20439;-48